sensor_id;sensor_type;location;lat;lon;timestamp;pressure;altitude;pressure_sealevel;temperature;humidity
36726;BME280;44936;52.086;5.150;2024-01-25T00:00:33;103468.94;;;8.34;100.00
36726;BME280;44936;52.086;5.150;2024-01-25T00:02:59;103518.28;;;8.59;100.00
36726;BME280;44936;52.086;5.150;2024-01-25T00:05:24;103449.94;;;8.05;100.00
36726;BME280;44936;52.086;5.150;2024-01-25T00:07:52;103487.72;;;8.27;100.00
36726;BME280;44936;52.086;5.150;2024-01-25T00:10:17;103504.28;;;8.27;100.00
36726;BME280;44936;52.086;5.150;2024-01-25T00:12:43;103530.91;;;8.35;100.00
36726;BME280;44936;52.086;5.150;2024-01-25T00:15:09;103490.81;;;8.19;100.00
36726;BME280;44936;52.086;5.150;2024-01-25T00:17:35;103516.44;;;8.10;100.00
36726;BME280;44936;52.086;5.150;2024-01-25T00:20:00;103510.53;;;7.98;100.00
36726;BME280;44936;52.086;5.150;2024-01-25T00:22:26;103545.91;;;8.22;100.00
36726;BME280;44936;52.086;5.150;2024-01-25T00:24:51;103525.59;;;8.18;100.00
36726;BME280;44936;52.086;5.150;2024-01-25T00:27:16;103508.53;;;7.94;100.00
36726;BME280;44936;52.086;5.150;2024-01-25T00:29:42;103495.84;;;7.69;100.00
36726;BME280;44936;52.086;5.150;2024-01-25T00:32:07;103500.69;;;7.94;100.00
36726;BME280;44936;52.086;5.150;2024-01-25T00:34:33;103518.47;;;7.85;100.00
36726;BME280;44936;52.086;5.150;2024-01-25T00:36:58;103491.91;;;7.77;100.00
36726;BME280;44936;52.086;5.150;2024-01-25T00:39:24;103518.84;;;7.91;100.00
36726;BME280;44936;52.086;5.150;2024-01-25T00:41:51;103551.22;;;8.09;100.00
36726;BME280;44936;52.086;5.150;2024-01-25T00:44:17;103519.22;;;7.82;100.00
36726;BME280;44936;52.086;5.150;2024-01-25T00:46:43;103537.28;;;7.94;100.00
36726;BME280;44936;52.086;5.150;2024-01-25T00:49:08;103557.00;;;8.04;100.00
36726;BME280;44936;52.086;5.150;2024-01-25T00:51:35;103510.16;;;7.61;100.00
36726;BME280;44936;52.086;5.150;2024-01-25T00:54:01;103569.84;;;7.84;100.00
36726;BME280;44936;52.086;5.150;2024-01-25T00:56:28;103576.69;;;7.97;100.00
36726;BME280;44936;52.086;5.150;2024-01-25T00:58:54;103533.91;;;7.65;100.00
36726;BME280;44936;52.086;5.150;2024-01-25T01:01:21;103520.69;;;7.62;100.00
36726;BME280;44936;52.086;5.150;2024-01-25T01:03:48;103579.38;;;7.84;100.00
36726;BME280;44936;52.086;5.150;2024-01-25T01:06:19;103582.75;;;7.81;100.00
36726;BME280;44936;52.086;5.150;2024-01-25T01:08:44;103530.06;;;7.44;100.00
36726;BME280;44936;52.086;5.150;2024-01-25T01:11:13;103537.00;;;7.44;100.00
36726;BME280;44936;52.086;5.150;2024-01-25T01:13:38;103571.47;;;7.67;100.00
36726;BME280;44936;52.086;5.150;2024-01-25T01:16:04;103555.38;;;7.45;100.00
36726;BME280;44936;52.086;5.150;2024-01-25T01:18:29;103540.66;;;7.32;100.00
36726;BME280;44936;52.086;5.150;2024-01-25T01:20:55;103586.72;;;7.60;100.00
36726;BME280;44936;52.086;5.150;2024-01-25T01:23:20;103544.19;;;7.48;100.00
36726;BME280;44936;52.086;5.150;2024-01-25T01:25:45;103582.94;;;7.70;100.00
36726;BME280;44936;52.086;5.150;2024-01-25T01:28:11;103581.03;;;7.67;100.00
36726;BME280;44936;52.086;5.150;2024-01-25T01:30:36;103548.97;;;7.40;100.00
36726;BME280;44936;52.086;5.150;2024-01-25T01:33:01;103604.06;;;7.59;100.00
36726;BME280;44936;52.086;5.150;2024-01-25T01:35:27;103577.25;;;7.47;100.00
36726;BME280;44936;52.086;5.150;2024-01-25T01:37:52;103540.78;;;7.34;100.00
36726;BME280;44936;52.086;5.150;2024-01-25T01:40:17;103579.31;;;7.38;100.00
36726;BME280;44936;52.086;5.150;2024-01-25T01:42:43;103566.97;;;7.50;100.00
36726;BME280;44936;52.086;5.150;2024-01-25T01:45:11;103548.78;;;7.37;100.00
36726;BME280;44936;52.086;5.150;2024-01-25T01:47:37;103573.19;;;7.37;100.00
36726;BME280;44936;52.086;5.150;2024-01-25T01:50:02;103601.94;;;7.52;100.00
36726;BME280;44936;52.086;5.150;2024-01-25T01:52:28;103603.34;;;7.47;100.00
36726;BME280;44936;52.086;5.150;2024-01-25T01:54:53;103599.38;;;7.39;100.00
36726;BME280;44936;52.086;5.150;2024-01-25T01:57:19;103586.59;;;7.29;100.00
36726;BME280;44936;52.086;5.150;2024-01-25T01:59:45;103620.47;;;7.42;100.00
36726;BME280;44936;52.086;5.150;2024-01-25T02:02:11;103585.41;;;7.24;100.00
36726;BME280;44936;52.086;5.150;2024-01-25T02:04:37;103618.91;;;7.31;100.00
36726;BME280;44936;52.086;5.150;2024-01-25T02:07:03;103631.34;;;7.35;100.00
36726;BME280;44936;52.086;5.150;2024-01-25T02:09:29;103651.53;;;7.37;100.00
36726;BME280;44936;52.086;5.150;2024-01-25T02:12:03;103615.19;;;7.13;100.00
36726;BME280;44936;52.086;5.150;2024-01-25T02:14:30;103593.00;;;7.06;100.00
36726;BME280;44936;52.086;5.150;2024-01-25T02:16:56;103627.28;;;7.25;100.00
36726;BME280;44936;52.086;5.150;2024-01-25T02:19:22;103660.34;;;7.39;100.00
36726;BME280;44936;52.086;5.150;2024-01-25T02:21:47;103671.22;;;7.32;100.00
36726;BME280;44936;52.086;5.150;2024-01-25T02:24:14;103632.47;;;7.10;100.00
36726;BME280;44936;52.086;5.150;2024-01-25T02:26:39;103652.91;;;7.18;100.00
36726;BME280;44936;52.086;5.150;2024-01-25T02:29:04;103650.09;;;7.15;100.00
36726;BME280;44936;52.086;5.150;2024-01-25T02:31:31;103657.31;;;7.19;100.00
36726;BME280;44936;52.086;5.150;2024-01-25T02:33:56;103644.53;;;7.08;100.00
36726;BME280;44936;52.086;5.150;2024-01-25T02:36:24;103630.13;;;6.87;100.00
36726;BME280;44936;52.086;5.150;2024-01-25T02:38:50;103681.41;;;7.15;100.00
36726;BME280;44936;52.086;5.150;2024-01-25T02:41:15;103660.41;;;6.98;100.00
36726;BME280;44936;52.086;5.150;2024-01-25T02:43:40;103640.56;;;6.87;100.00
36726;BME280;44936;52.086;5.150;2024-01-25T02:46:07;103683.66;;;7.08;100.00
36726;BME280;44936;52.086;5.150;2024-01-25T02:48:43;103658.41;;;6.94;100.00
36726;BME280;44936;52.086;5.150;2024-01-25T02:51:08;103667.44;;;6.99;100.00
36726;BME280;44936;52.086;5.150;2024-01-25T02:53:33;103686.47;;;7.12;100.00
36726;BME280;44936;52.086;5.150;2024-01-25T02:55:59;103638.19;;;6.77;100.00
36726;BME280;44936;52.086;5.150;2024-01-25T02:58:24;103648.03;;;6.81;100.00
36726;BME280;44936;52.086;5.150;2024-01-25T03:00:49;103682.06;;;6.97;100.00
36726;BME280;44936;52.086;5.150;2024-01-25T03:03:15;103679.38;;;6.96;100.00
36726;BME280;44936;52.086;5.150;2024-01-25T03:05:41;103688.00;;;6.95;100.00
36726;BME280;44936;52.086;5.150;2024-01-25T03:08:06;103680.47;;;6.99;100.00
36726;BME280;44936;52.086;5.150;2024-01-25T03:10:32;103692.22;;;6.93;100.00
36726;BME280;44936;52.086;5.150;2024-01-25T03:12:57;103675.59;;;6.91;100.00
36726;BME280;44936;52.086;5.150;2024-01-25T03:15:23;103654.53;;;6.74;100.00
36726;BME280;44936;52.086;5.150;2024-01-25T03:17:49;103664.75;;;6.71;100.00
36726;BME280;44936;52.086;5.150;2024-01-25T03:20:14;103667.19;;;6.81;100.00
36726;BME280;44936;52.086;5.150;2024-01-25T03:22:39;103615.56;;;6.49;100.00
36726;BME280;44936;52.086;5.150;2024-01-25T03:25:05;103666.09;;;6.65;100.00
36726;BME280;44936;52.086;5.150;2024-01-25T03:27:30;103648.84;;;6.53;100.00
36726;BME280;44936;52.086;5.150;2024-01-25T03:29:56;103638.94;;;6.48;100.00
36726;BME280;44936;52.086;5.150;2024-01-25T03:32:21;103682.44;;;6.75;100.00
36726;BME280;44936;52.086;5.150;2024-01-25T03:34:47;103619.28;;;6.40;100.00
36726;BME280;44936;52.086;5.150;2024-01-25T03:37:12;103694.16;;;6.82;100.00
36726;BME280;44936;52.086;5.150;2024-01-25T03:39:37;103707.00;;;6.79;100.00
36726;BME280;44936;52.086;5.150;2024-01-25T03:42:03;103707.00;;;6.79;100.00
36726;BME280;44936;52.086;5.150;2024-01-25T03:44:28;103651.47;;;6.40;100.00
36726;BME280;44936;52.086;5.150;2024-01-25T03:46:54;103666.50;;;6.44;100.00
36726;BME280;44936;52.086;5.150;2024-01-25T03:49:19;103695.47;;;6.62;100.00
36726;BME280;44936;52.086;5.150;2024-01-25T03:51:44;103709.53;;;6.64;100.00
36726;BME280;44936;52.086;5.150;2024-01-25T03:54:10;103674.03;;;6.40;100.00
36726;BME280;44936;52.086;5.150;2024-01-25T03:56:35;103654.88;;;6.26;100.00
36726;BME280;44936;52.086;5.150;2024-01-25T03:59:03;103645.28;;;6.12;100.00
36726;BME280;44936;52.086;5.150;2024-01-25T04:01:28;103658.59;;;6.16;100.00
36726;BME280;44936;52.086;5.150;2024-01-25T04:03:53;103681.16;;;6.29;100.00
36726;BME280;44936;52.086;5.150;2024-01-25T04:06:19;103653.00;;;6.10;100.00
36726;BME280;44936;52.086;5.150;2024-01-25T04:08:44;103709.16;;;6.45;100.00
36726;BME280;44936;52.086;5.150;2024-01-25T04:11:10;103702.41;;;6.35;100.00
36726;BME280;44936;52.086;5.150;2024-01-25T04:13:35;103676.81;;;6.16;100.00
36726;BME280;44936;52.086;5.150;2024-01-25T04:16:01;103629.31;;;5.94;100.00
36726;BME280;44936;52.086;5.150;2024-01-25T04:18:26;103657.41;;;6.11;100.00
36726;BME280;44936;52.086;5.150;2024-01-25T04:20:51;103687.56;;;6.21;100.00
36726;BME280;44936;52.086;5.150;2024-01-25T04:23:17;103669.31;;;6.08;100.00
36726;BME280;44936;52.086;5.150;2024-01-25T04:25:42;103681.75;;;6.12;100.00
36726;BME280;44936;52.086;5.150;2024-01-25T04:28:08;103698.38;;;6.14;100.00
36726;BME280;44936;52.086;5.150;2024-01-25T04:30:33;103677.50;;;6.01;100.00
36726;BME280;44936;52.086;5.150;2024-01-25T04:32:58;103702.59;;;6.12;100.00
36726;BME280;44936;52.086;5.150;2024-01-25T04:35:24;103714.91;;;6.14;100.00
36726;BME280;44936;52.086;5.150;2024-01-25T04:37:50;103676.38;;;5.84;100.00
36726;BME280;44936;52.086;5.150;2024-01-25T04:40:15;103693.44;;;5.92;100.00
36726;BME280;44936;52.086;5.150;2024-01-25T04:42:40;103636.00;;;5.52;100.00
36726;BME280;44936;52.086;5.150;2024-01-25T04:45:06;103634.31;;;5.53;100.00
36726;BME280;44936;52.086;5.150;2024-01-25T04:47:31;103696.41;;;5.85;100.00
36726;BME280;44936;52.086;5.150;2024-01-25T04:49:57;103710.44;;;5.87;100.00
36726;BME280;44936;52.086;5.150;2024-01-25T04:52:22;103670.84;;;5.79;100.00
36726;BME280;44936;52.086;5.150;2024-01-25T04:54:47;103681.69;;;5.85;100.00
36726;BME280;44936;52.086;5.150;2024-01-25T04:57:13;103660.69;;;5.71;100.00
36726;BME280;44936;52.086;5.150;2024-01-25T04:59:38;103682.25;;;5.81;100.00
36726;BME280;44936;52.086;5.150;2024-01-25T05:02:03;103695.38;;;5.83;100.00
36726;BME280;44936;52.086;5.150;2024-01-25T05:04:29;103741.88;;;6.02;100.00
36726;BME280;44936;52.086;5.150;2024-01-25T05:06:54;103692.94;;;5.73;100.00
36726;BME280;44936;52.086;5.150;2024-01-25T05:09:20;103739.75;;;5.96;100.00
36726;BME280;44936;52.086;5.150;2024-01-25T05:11:45;103715.91;;;5.78;100.00
36726;BME280;44936;52.086;5.150;2024-01-25T05:14:10;103722.53;;;5.86;100.00
36726;BME280;44936;52.086;5.150;2024-01-25T05:16:36;103707.09;;;5.76;100.00
36726;BME280;44936;52.086;5.150;2024-01-25T05:19:03;103680.59;;;5.57;100.00
36726;BME280;44936;52.086;5.150;2024-01-25T05:21:29;103725.53;;;5.79;100.00
36726;BME280;44936;52.086;5.150;2024-01-25T05:23:54;103733.72;;;5.72;100.00
36726;BME280;44936;52.086;5.150;2024-01-25T05:26:21;103739.53;;;5.68;100.00
36726;BME280;44936;52.086;5.150;2024-01-25T05:28:46;103693.91;;;5.36;100.00
36726;BME280;44936;52.086;5.150;2024-01-25T05:31:11;103751.53;;;5.66;100.00
36726;BME280;44936;52.086;5.150;2024-01-25T05:33:41;103706.13;;;5.37;100.00
36726;BME280;44936;52.086;5.150;2024-01-25T05:36:07;103681.53;;;5.21;100.00
36726;BME280;44936;52.086;5.150;2024-01-25T05:38:33;103706.94;;;5.36;100.00
36726;BME280;44936;52.086;5.150;2024-01-25T05:40:58;103724.69;;;5.42;100.00
36726;BME280;44936;52.086;5.150;2024-01-25T05:43:24;103709.78;;;5.28;100.00
36726;BME280;44936;52.086;5.150;2024-01-25T05:45:49;103717.03;;;5.32;100.00
36726;BME280;44936;52.086;5.150;2024-01-25T05:48:15;103714.44;;;5.32;100.00
36726;BME280;44936;52.086;5.150;2024-01-25T05:50:40;103750.91;;;5.57;100.00
36726;BME280;44936;52.086;5.150;2024-01-25T05:53:06;103730.00;;;5.44;100.00
36726;BME280;44936;52.086;5.150;2024-01-25T05:55:31;103748.84;;;5.53;100.00
36726;BME280;44936;52.086;5.150;2024-01-25T05:57:56;103736.00;;;5.43;100.00
36726;BME280;44936;52.086;5.150;2024-01-25T06:00:22;103706.94;;;5.36;100.00
36726;BME280;44936;52.086;5.150;2024-01-25T06:02:48;103689.31;;;5.32;100.00
36726;BME280;44936;52.086;5.150;2024-01-25T06:05:13;103729.56;;;5.62;100.00
36726;BME280;44936;52.086;5.150;2024-01-25T06:07:39;103709.91;;;5.54;100.00
36726;BME280;44936;52.086;5.150;2024-01-25T06:10:04;103723.66;;;5.65;100.00
36726;BME280;44936;52.086;5.150;2024-01-25T06:12:30;103687.50;;;5.31;100.00
36726;BME280;44936;52.086;5.150;2024-01-25T06:14:55;103723.03;;;5.56;100.00
36726;BME280;44936;52.086;5.150;2024-01-25T06:17:20;103700.53;;;5.31;100.00
36726;BME280;44936;52.086;5.150;2024-01-25T06:19:45;103699.56;;;5.43;100.00
36726;BME280;44936;52.086;5.150;2024-01-25T06:22:11;103691.66;;;5.41;100.00
36726;BME280;44936;52.086;5.150;2024-01-25T06:24:38;103737.72;;;5.67;100.00
36726;BME280;44936;52.086;5.150;2024-01-25T06:27:03;103738.91;;;5.72;100.00
36726;BME280;44936;52.086;5.150;2024-01-25T06:29:28;103755.28;;;5.83;100.00
36726;BME280;44936;52.086;5.150;2024-01-25T06:31:54;103720.66;;;5.59;100.00
36726;BME280;44936;52.086;5.150;2024-01-25T06:34:19;103750.56;;;5.77;100.00
36726;BME280;44936;52.086;5.150;2024-01-25T06:36:45;103763.22;;;5.84;100.00
36726;BME280;44936;52.086;5.150;2024-01-25T06:39:10;103751.28;;;5.75;100.00
36726;BME280;44936;52.086;5.150;2024-01-25T06:41:35;103737.81;;;5.68;100.00
36726;BME280;44936;52.086;5.150;2024-01-25T06:44:01;103728.72;;;5.50;100.00
36726;BME280;44936;52.086;5.150;2024-01-25T06:46:26;103702.38;;;5.46;100.00
36726;BME280;44936;52.086;5.150;2024-01-25T06:48:52;103711.41;;;5.51;100.00
36726;BME280;44936;52.086;5.150;2024-01-25T06:51:17;103773.22;;;5.78;100.00
36726;BME280;44936;52.086;5.150;2024-01-25T06:53:43;103764.03;;;5.83;100.00
36726;BME280;44936;52.086;5.150;2024-01-25T06:56:08;103702.16;;;5.43;100.00
36726;BME280;44936;52.086;5.150;2024-01-25T06:58:33;103748.06;;;5.79;100.00
36726;BME280;44936;52.086;5.150;2024-01-25T07:00:59;103707.41;;;5.56;100.00
36726;BME280;44936;52.086;5.150;2024-01-25T07:03:25;103728.88;;;5.65;100.00
36726;BME280;44936;52.086;5.150;2024-01-25T07:05:50;103752.28;;;5.77;100.00
36726;BME280;44936;52.086;5.150;2024-01-25T07:08:15;103728.72;;;5.75;100.00
36726;BME280;44936;52.086;5.150;2024-01-25T07:10:41;103711.25;;;5.61;100.00
36726;BME280;44936;52.086;5.150;2024-01-25T07:13:07;103750.78;;;5.80;100.00
36726;BME280;44936;52.086;5.150;2024-01-25T07:15:32;103727.84;;;5.75;100.00
36726;BME280;44936;52.086;5.150;2024-01-25T07:17:57;103709.78;;;5.39;100.00
36726;BME280;44936;52.086;5.150;2024-01-25T07:20:22;103731.59;;;5.66;100.00
36726;BME280;44936;52.086;5.150;2024-01-25T07:22:48;103753.25;;;5.90;100.00
36726;BME280;44936;52.086;5.150;2024-01-25T07:25:13;103756.59;;;6.01;100.00
36726;BME280;44936;52.086;5.150;2024-01-25T07:27:39;103755.09;;;6.05;100.00
36726;BME280;44936;52.086;5.150;2024-01-25T07:30:05;103770.75;;;6.18;100.00
36726;BME280;44936;52.086;5.150;2024-01-25T07:32:30;103754.28;;;6.06;100.00
36726;BME280;44936;52.086;5.150;2024-01-25T07:34:58;103760.94;;;6.14;100.00
36726;BME280;44936;52.086;5.150;2024-01-25T07:37:23;103711.31;;;5.87;100.00
36726;BME280;44936;52.086;5.150;2024-01-25T07:39:49;103769.16;;;6.20;100.00
36726;BME280;44936;52.086;5.150;2024-01-25T07:42:14;103739.63;;;5.94;100.00
36726;BME280;44936;52.086;5.150;2024-01-25T07:44:39;103753.88;;;6.00;100.00
36726;BME280;44936;52.086;5.150;2024-01-25T07:47:05;103750.59;;;6.02;100.00
36726;BME280;44936;52.086;5.150;2024-01-25T07:49:30;103764.63;;;6.17;100.00
36726;BME280;44936;52.086;5.150;2024-01-25T07:51:55;103724.81;;;5.93;100.00
36726;BME280;44936;52.086;5.150;2024-01-25T07:54:24;103730.22;;;5.96;100.00
36726;BME280;44936;52.086;5.150;2024-01-25T07:56:49;103747.47;;;6.08;100.00
36726;BME280;44936;52.086;5.150;2024-01-25T07:59:14;103734.63;;;5.97;100.00
36726;BME280;44936;52.086;5.150;2024-01-25T08:01:40;103766.34;;;6.17;100.00
36726;BME280;44936;52.086;5.150;2024-01-25T08:04:05;103779.41;;;6.30;100.00
36726;BME280;44936;52.086;5.150;2024-01-25T08:06:31;103708.03;;;5.90;100.00
36726;BME280;44936;52.086;5.150;2024-01-25T08:08:56;103716.53;;;5.87;100.00
36726;BME280;44936;52.086;5.150;2024-01-25T08:11:21;103755.53;;;6.24;100.00
36726;BME280;44936;52.086;5.150;2024-01-25T08:13:48;103753.50;;;6.07;100.00
36726;BME280;44936;52.086;5.150;2024-01-25T08:16:14;103689.66;;;5.75;100.00
36726;BME280;44936;52.086;5.150;2024-01-25T08:18:44;103710.00;;;5.81;100.00
36726;BME280;44936;52.086;5.150;2024-01-25T08:21:11;103744.06;;;6.09;100.00
36726;BME280;44936;52.086;5.150;2024-01-25T08:23:36;103746.28;;;6.03;100.00
36726;BME280;44936;52.086;5.150;2024-01-25T08:26:02;103721.97;;;5.90;100.00
36726;BME280;44936;52.086;5.150;2024-01-25T08:28:27;103741.75;;;6.00;100.00
36726;BME280;44936;52.086;5.150;2024-01-25T08:30:54;103733.63;;;6.09;100.00
36726;BME280;44936;52.086;5.150;2024-01-25T08:33:19;103734.06;;;6.15;100.00
36726;BME280;44936;52.086;5.150;2024-01-25T08:35:45;103719.13;;;6.12;100.00
36726;BME280;44936;52.086;5.150;2024-01-25T08:38:10;103772.63;;;6.45;100.00
36726;BME280;44936;52.086;5.150;2024-01-25T08:40:35;103753.25;;;6.29;100.00
36726;BME280;44936;52.086;5.150;2024-01-25T08:43:02;103736.19;;;6.34;100.00
36726;BME280;44936;52.086;5.150;2024-01-25T08:45:29;103709.03;;;6.30;100.00
36726;BME280;44936;52.086;5.150;2024-01-25T08:47:55;103741.72;;;6.51;100.00
36726;BME280;44936;52.086;5.150;2024-01-25T08:50:21;103758.16;;;6.77;100.00
36726;BME280;44936;52.086;5.150;2024-01-25T08:52:46;103792.56;;;6.98;100.00
36726;BME280;44936;52.086;5.150;2024-01-25T08:55:14;103741.03;;;6.67;100.00
36726;BME280;44936;52.086;5.150;2024-01-25T08:57:41;103729.78;;;6.81;100.00
36726;BME280;44936;52.086;5.150;2024-01-25T09:00:07;103773.22;;;6.94;100.00
36726;BME280;44936;52.086;5.150;2024-01-25T09:02:36;103758.56;;;6.96;100.00
36726;BME280;44936;52.086;5.150;2024-01-25T09:05:02;103749.75;;;6.81;100.00
36726;BME280;44936;52.086;5.150;2024-01-25T09:07:28;103751.31;;;7.19;100.00
36726;BME280;44936;52.086;5.150;2024-01-25T09:09:54;103739.81;;;7.30;100.00
36726;BME280;44936;52.086;5.150;2024-01-25T09:12:19;103731.41;;;7.21;100.00
36726;BME280;44936;52.086;5.150;2024-01-25T09:14:45;103707.34;;;7.12;100.00
36726;BME280;44936;52.086;5.150;2024-01-25T09:17:11;103757.03;;;7.54;100.00
36726;BME280;44936;52.086;5.150;2024-01-25T09:19:37;103754.41;;;7.54;100.00
36726;BME280;44936;52.086;5.150;2024-01-25T09:22:03;103738.66;;;7.53;100.00
36726;BME280;44936;52.086;5.150;2024-01-25T09:24:33;103713.47;;;7.40;100.00
36726;BME280;44936;52.086;5.150;2024-01-25T09:27:01;103746.44;;;7.81;100.00
36726;BME280;44936;52.086;5.150;2024-01-25T09:29:26;103733.00;;;7.75;100.00
36726;BME280;44936;52.086;5.150;2024-01-25T09:31:52;103725.16;;;7.60;100.00
36726;BME280;44936;52.086;5.150;2024-01-25T09:34:18;103707.44;;;7.41;100.00
36726;BME280;44936;52.086;5.150;2024-01-25T09:36:43;103692.06;;;7.18;100.00
36726;BME280;44936;52.086;5.150;2024-01-25T09:39:08;103686.63;;;7.15;100.00
36726;BME280;44936;52.086;5.150;2024-01-25T09:41:34;103683.72;;;7.51;100.00
36726;BME280;44936;52.086;5.150;2024-01-25T09:43:59;103691.47;;;7.64;100.00
36726;BME280;44936;52.086;5.150;2024-01-25T09:46:25;103711.13;;;7.73;100.00
36726;BME280;44936;52.086;5.150;2024-01-25T09:48:51;103711.31;;;7.90;100.00
36726;BME280;44936;52.086;5.150;2024-01-25T09:51:16;103662.00;;;7.67;100.00
36726;BME280;44936;52.086;5.150;2024-01-25T09:53:48;103711.94;;;8.01;100.00
36726;BME280;44936;52.086;5.150;2024-01-25T09:56:17;103696.19;;;8.14;100.00
36726;BME280;44936;52.086;5.150;2024-01-25T09:58:44;103704.66;;;8.10;100.00
36726;BME280;44936;52.086;5.150;2024-01-25T10:01:13;103678.88;;;8.16;100.00
36726;BME280;44936;52.086;5.150;2024-01-25T10:03:45;103713.41;;;8.26;100.00
36726;BME280;44936;52.086;5.150;2024-01-25T10:06:11;103674.34;;;8.29;100.00
36726;BME280;44936;52.086;5.150;2024-01-25T10:08:37;103687.16;;;8.39;100.00
36726;BME280;44936;52.086;5.150;2024-01-25T10:11:03;103616.22;;;8.18;100.00
36726;BME280;44936;52.086;5.150;2024-01-25T10:13:29;103689.75;;;8.68;100.00
36726;BME280;44936;52.086;5.150;2024-01-25T10:15:55;103699.75;;;8.61;100.00
36726;BME280;44936;52.086;5.150;2024-01-25T10:18:27;103661.88;;;8.54;100.00
36726;BME280;44936;52.086;5.150;2024-01-25T10:20:53;103678.44;;;8.69;100.00
36726;BME280;44936;52.086;5.150;2024-01-25T10:23:19;103659.41;;;8.41;100.00
36726;BME280;44936;52.086;5.150;2024-01-25T10:25:45;103671.03;;;8.77;100.00
36726;BME280;44936;52.086;5.150;2024-01-25T10:28:11;103654.81;;;8.07;100.00
36726;BME280;44936;52.086;5.150;2024-01-25T10:30:37;103673.31;;;8.40;100.00
36726;BME280;44936;52.086;5.150;2024-01-25T10:33:04;103684.28;;;8.80;100.00
36726;BME280;44936;52.086;5.150;2024-01-25T10:35:32;103679.16;;;8.98;100.00
36726;BME280;44936;52.086;5.150;2024-01-25T10:37:58;103628.31;;;8.62;100.00
36726;BME280;44936;52.086;5.150;2024-01-25T10:40:23;103689.50;;;9.11;100.00
36726;BME280;44936;52.086;5.150;2024-01-25T10:42:49;103686.13;;;9.14;100.00
36726;BME280;44936;52.086;5.150;2024-01-25T10:45:15;103690.72;;;9.01;100.00
36726;BME280;44936;52.086;5.150;2024-01-25T10:47:41;103685.72;;;9.22;100.00
36726;BME280;44936;52.086;5.150;2024-01-25T10:50:13;103680.16;;;9.32;100.00
36726;BME280;44936;52.086;5.150;2024-01-25T10:52:41;103638.03;;;9.28;100.00
36726;BME280;44936;52.086;5.150;2024-01-25T10:55:08;103662.16;;;9.22;100.00
36726;BME280;44936;52.086;5.150;2024-01-25T10:57:37;103640.13;;;9.19;100.00
36726;BME280;44936;52.086;5.150;2024-01-25T11:00:09;103596.69;;;8.90;100.00
36726;BME280;44936;52.086;5.150;2024-01-25T11:02:35;103618.63;;;8.75;100.00
36726;BME280;44936;52.086;5.150;2024-01-25T11:05:01;103651.69;;;9.22;100.00
36726;BME280;44936;52.086;5.150;2024-01-25T11:07:27;103586.63;;;8.81;100.00
36726;BME280;44936;52.086;5.150;2024-01-25T11:09:53;103567.66;;;8.69;100.00
36726;BME280;44936;52.086;5.150;2024-01-25T11:12:19;103611.59;;;9.23;100.00
36726;BME280;44936;52.086;5.150;2024-01-25T11:14:45;103612.25;;;8.87;100.00
36726;BME280;44936;52.086;5.150;2024-01-25T11:17:21;103616.47;;;9.17;100.00
36726;BME280;44936;52.086;5.150;2024-01-25T11:19:48;103607.31;;;9.09;100.00
36726;BME280;44936;52.086;5.150;2024-01-25T11:22:15;103604.88;;;9.12;100.00
36726;BME280;44936;52.086;5.150;2024-01-25T11:24:40;103585.09;;;9.51;100.00
36726;BME280;44936;52.086;5.150;2024-01-25T11:27:08;103565.09;;;9.53;100.00
36726;BME280;44936;52.086;5.150;2024-01-25T11:29:34;103589.53;;;9.70;100.00
36726;BME280;44936;52.086;5.150;2024-01-25T11:32:00;103578.84;;;9.65;100.00
36726;BME280;44936;52.086;5.150;2024-01-25T11:34:25;103596.56;;;9.71;100.00
36726;BME280;44936;52.086;5.150;2024-01-25T11:36:51;103561.38;;;9.48;100.00
36726;BME280;44936;52.086;5.150;2024-01-25T11:39:16;103532.59;;;9.32;100.00
36726;BME280;44936;52.086;5.150;2024-01-25T11:41:43;103530.44;;;9.41;100.00
36726;BME280;44936;52.086;5.150;2024-01-25T11:44:12;103568.38;;;9.65;100.00
36726;BME280;44936;52.086;5.150;2024-01-25T11:46:41;103565.31;;;9.74;100.00
36726;BME280;44936;52.086;5.150;2024-01-25T11:49:07;103526.63;;;9.70;100.00
36726;BME280;44936;52.086;5.150;2024-01-25T11:51:32;103520.50;;;9.52;100.00
36726;BME280;44936;52.086;5.150;2024-01-25T11:53:58;103468.16;;;9.53;100.00
36726;BME280;44936;52.086;5.150;2024-01-25T11:56:28;103486.50;;;9.71;100.00
36726;BME280;44936;52.086;5.150;2024-01-25T11:58:55;103483.53;;;9.63;100.00
36726;BME280;44936;52.086;5.150;2024-01-25T12:01:24;103507.03;;;9.62;100.00
36726;BME280;44936;52.086;5.150;2024-01-25T12:03:52;103529.03;;;9.48;100.00
36726;BME280;44936;52.086;5.150;2024-01-25T12:06:18;103505.38;;;9.46;100.00
36726;BME280;44936;52.086;5.150;2024-01-25T12:08:44;103504.84;;;9.53;100.00
36726;BME280;44936;52.086;5.150;2024-01-25T12:11:10;103499.59;;;9.35;100.00
36726;BME280;44936;52.086;5.150;2024-01-25T12:13:39;103528.78;;;9.43;100.00
36726;BME280;44936;52.086;5.150;2024-01-25T12:16:05;103497.97;;;9.38;100.00
36726;BME280;44936;52.086;5.150;2024-01-25T12:18:31;103468.66;;;9.11;100.00
36726;BME280;44936;52.086;5.150;2024-01-25T12:20:58;103457.91;;;9.22;100.00
36726;BME280;44936;52.086;5.150;2024-01-25T12:23:36;103489.94;;;9.34;100.00
36726;BME280;44936;52.086;5.150;2024-01-25T12:26:03;103539.97;;;9.23;100.00
36726;BME280;44936;52.086;5.150;2024-01-25T12:28:32;103526.59;;;9.34;100.00
36726;BME280;44936;52.086;5.150;2024-01-25T12:30:59;103495.41;;;9.39;100.00
36726;BME280;44936;52.086;5.150;2024-01-25T12:33:25;103461.16;;;9.18;100.00
36726;BME280;44936;52.086;5.150;2024-01-25T12:35:50;103478.75;;;9.55;100.00
36726;BME280;44936;52.086;5.150;2024-01-25T12:38:15;103504.41;;;9.62;100.00
36726;BME280;44936;52.086;5.150;2024-01-25T12:40:42;103462.63;;;9.65;100.00
36726;BME280;44936;52.086;5.150;2024-01-25T12:43:08;103479.88;;;9.97;100.00